sensor_id;sensor_type;location;lat;lon;timestamp;P1;durP1;ratioP1;P2;durP2;ratioP2
28625;SDS011;18905;42.668;23.364;2022-11-15T00:00:48;117.93;;;54.55;;
28625;SDS011;18905;42.668;23.364;2022-11-15T00:03:15;114.03;;;51.70;;
28625;SDS011;18905;42.668;23.364;2022-11-15T00:05:41;123.38;;;55.20;;
28625;SDS011;18905;42.668;23.364;2022-11-15T00:08:07;114.80;;;54.15;;
28625;SDS011;18905;42.668;23.364;2022-11-15T00:10:33;116.35;;;56.30;;
28625;SDS011;18905;42.668;23.364;2022-11-15T00:12:58;126.15;;;56.70;;
28625;SDS011;18905;42.668;23.364;2022-11-15T00:15:24;120.35;;;56.92;;
28625;SDS011;18905;42.668;23.364;2022-11-15T00:17:49;119.35;;;57.05;;
28625;SDS011;18905;42.668;23.364;2022-11-15T00:20:15;117.65;;;57.22;;
28625;SDS011;18905;42.668;23.364;2022-11-15T00:22:44;124.78;;;56.33;;
28625;SDS011;18905;42.668;23.364;2022-11-15T00:25:09;123.55;;;55.25;;
28625;SDS011;18905;42.668;23.364;2022-11-15T00:27:35;107.15;;;51.72;;
28625;SDS011;18905;42.668;23.364;2022-11-15T00:30:00;122.68;;;54.75;;
28625;SDS011;18905;42.668;23.364;2022-11-15T00:32:26;115.63;;;54.05;;
28625;SDS011;18905;42.668;23.364;2022-11-15T00:34:51;114.03;;;52.53;;
28625;SDS011;18905;42.668;23.364;2022-11-15T00:37:16;117.50;;;54.70;;
28625;SDS011;18905;42.668;23.364;2022-11-15T00:39:42;113.13;;;53.50;;
28625;SDS011;18905;42.668;23.364;2022-11-15T00:42:07;114.18;;;52.67;;
28625;SDS011;18905;42.668;23.364;2022-11-15T00:44:32;115.28;;;54.33;;
28625;SDS011;18905;42.668;23.364;2022-11-15T00:46:58;120.35;;;53.95;;
28625;SDS011;18905;42.668;23.364;2022-11-15T00:49:23;114.57;;;54.05;;
28625;SDS011;18905;42.668;23.364;2022-11-15T00:51:49;105.25;;;50.30;;
28625;SDS011;18905;42.668;23.364;2022-11-15T00:54:14;106.25;;;50.90;;
28625;SDS011;18905;42.668;23.364;2022-11-15T00:56:39;113.88;;;52.83;;
28625;SDS011;18905;42.668;23.364;2022-11-15T00:59:05;112.13;;;54.33;;
28625;SDS011;18905;42.668;23.364;2022-11-15T01:01:30;108.97;;;52.65;;
28625;SDS011;18905;42.668;23.364;2022-11-15T01:03:55;104.30;;;48.28;;
28625;SDS011;18905;42.668;23.364;2022-11-15T01:06:21;102.72;;;47.22;;
28625;SDS011;18905;42.668;23.364;2022-11-15T01:08:46;113.45;;;52.20;;
28625;SDS011;18905;42.668;23.364;2022-11-15T01:11:12;110.15;;;50.72;;
28625;SDS011;18905;42.668;23.364;2022-11-15T01:13:38;111.65;;;50.00;;
28625;SDS011;18905;42.668;23.364;2022-11-15T01:16:07;105.38;;;52.03;;
28625;SDS011;18905;42.668;23.364;2022-11-15T01:18:42;107.35;;;50.22;;
28625;SDS011;18905;42.668;23.364;2022-11-15T01:21:08;113.40;;;52.60;;
28625;SDS011;18905;42.668;23.364;2022-11-15T01:23:36;106.47;;;53.05;;
28625;SDS011;18905;42.668;23.364;2022-11-15T01:26:02;112.35;;;51.83;;
28625;SDS011;18905;42.668;23.364;2022-11-15T01:28:29;104.32;;;51.15;;
28625;SDS011;18905;42.668;23.364;2022-11-15T01:30:59;110.57;;;50.78;;
28625;SDS011;18905;42.668;23.364;2022-11-15T01:33:26;116.40;;;52.83;;
28625;SDS011;18905;42.668;23.364;2022-11-15T01:35:52;114.43;;;51.25;;
28625;SDS011;18905;42.668;23.364;2022-11-15T01:38:18;112.78;;;52.30;;
28625;SDS011;18905;42.668;23.364;2022-11-15T01:40:43;111.75;;;52.20;;
28625;SDS011;18905;42.668;23.364;2022-11-15T01:43:18;102.40;;;50.75;;
28625;SDS011;18905;42.668;23.364;2022-11-15T01:45:52;106.38;;;48.25;;
28625;SDS011;18905;42.668;23.364;2022-11-15T01:48:25;107.28;;;49.50;;
28625;SDS011;18905;42.668;23.364;2022-11-15T01:50:57;110.80;;;49.35;;
28625;SDS011;18905;42.668;23.364;2022-11-15T01:53:23;112.53;;;49.97;;
28625;SDS011;18905;42.668;23.364;2022-11-15T01:55:50;111.78;;;48.65;;
28625;SDS011;18905;42.668;23.364;2022-11-15T01:58:17;108.30;;;46.03;;
28625;SDS011;18905;42.668;23.364;2022-11-15T02:00:42;100.95;;;44.88;;
28625;SDS011;18905;42.668;23.364;2022-11-15T02:03:08;100.88;;;46.65;;
28625;SDS011;18905;42.668;23.364;2022-11-15T02:05:33;97.78;;;45.50;;
28625;SDS011;18905;42.668;23.364;2022-11-15T02:08:01;91.90;;;43.15;;
28625;SDS011;18905;42.668;23.364;2022-11-15T02:10:27;99.80;;;43.72;;
28625;SDS011;18905;42.668;23.364;2022-11-15T02:12:53;100.35;;;45.30;;
28625;SDS011;18905;42.668;23.364;2022-11-15T02:15:21;95.45;;;41.63;;
28625;SDS011;18905;42.668;23.364;2022-11-15T02:23:03;89.00;;;42.47;;
28625;SDS011;18905;42.668;23.364;2022-11-15T02:26:01;93.05;;;42.30;;
28625;SDS011;18905;42.668;23.364;2022-11-15T02:28:33;89.60;;;41.17;;
28625;SDS011;18905;42.668;23.364;2022-11-15T02:34:28;89.68;;;42.35;;
28625;SDS011;18905;42.668;23.364;2022-11-15T02:37:11;89.95;;;42.80;;
28625;SDS011;18905;42.668;23.364;2022-11-15T02:39:49;98.63;;;44.80;;
28625;SDS011;18905;42.668;23.364;2022-11-15T02:42:32;100.57;;;42.35;;
28625;SDS011;18905;42.668;23.364;2022-11-15T02:45:23;86.45;;;41.25;;
28625;SDS011;18905;42.668;23.364;2022-11-15T02:47:54;89.00;;;37.40;;
28625;SDS011;18905;42.668;23.364;2022-11-15T02:50:23;88.78;;;38.28;;
28625;SDS011;18905;42.668;23.364;2022-11-15T02:52:53;105.35;;;44.05;;
28625;SDS011;18905;42.668;23.364;2022-11-15T02:55:52;98.18;;;41.28;;
28625;SDS011;18905;42.668;23.364;2022-11-15T02:58:20;106.78;;;48.00;;
28625;SDS011;18905;42.668;23.364;2022-11-15T03:00:59;124.25;;;56.55;;
28625;SDS011;18905;42.668;23.364;2022-11-15T03:11:47;164.10;;;68.53;;
28625;SDS011;18905;42.668;23.364;2022-11-15T03:14:29;152.68;;;68.43;;
28625;SDS011;18905;42.668;23.364;2022-11-15T03:17:21;142.05;;;64.70;;
28625;SDS011;18905;42.668;23.364;2022-11-15T03:20:01;141.30;;;64.60;;
28625;SDS011;18905;42.668;23.364;2022-11-15T03:22:30;154.00;;;66.25;;
28625;SDS011;18905;42.668;23.364;2022-11-15T03:25:02;145.23;;;64.60;;
28625;SDS011;18905;42.668;23.364;2022-11-15T03:27:33;161.52;;;70.70;;
28625;SDS011;18905;42.668;23.364;2022-11-15T03:30:04;151.98;;;66.00;;
28625;SDS011;18905;42.668;23.364;2022-11-15T03:32:31;151.05;;;66.20;;
28625;SDS011;18905;42.668;23.364;2022-11-15T03:35:15;146.52;;;64.97;;
28625;SDS011;18905;42.668;23.364;2022-11-15T03:40:13;144.73;;;63.90;;
28625;SDS011;18905;42.668;23.364;2022-11-15T03:42:48;164.73;;;68.45;;
28625;SDS011;18905;42.668;23.364;2022-11-15T03:45:23;152.48;;;64.40;;
28625;SDS011;18905;42.668;23.364;2022-11-15T03:48:01;136.13;;;62.60;;
28625;SDS011;18905;42.668;23.364;2022-11-15T03:50:34;133.25;;;59.75;;
28625;SDS011;18905;42.668;23.364;2022-11-15T03:52:59;138.95;;;61.25;;
28625;SDS011;18905;42.668;23.364;2022-11-15T03:55:25;136.07;;;61.70;;
28625;SDS011;18905;42.668;23.364;2022-11-15T03:57:52;139.77;;;60.60;;
28625;SDS011;18905;42.668;23.364;2022-11-15T04:00:21;146.65;;;59.35;;
28625;SDS011;18905;42.668;23.364;2022-11-15T04:02:46;137.80;;;61.03;;
28625;SDS011;18905;42.668;23.364;2022-11-15T04:05:11;145.25;;;64.03;;
28625;SDS011;18905;42.668;23.364;2022-11-15T04:07:37;139.95;;;61.15;;
28625;SDS011;18905;42.668;23.364;2022-11-15T04:10:03;135.77;;;60.00;;
28625;SDS011;18905;42.668;23.364;2022-11-15T04:12:33;126.55;;;58.05;;
28625;SDS011;18905;42.668;23.364;2022-11-15T04:15:01;131.35;;;58.60;;
28625;SDS011;18905;42.668;23.364;2022-11-15T04:20:02;124.85;;;55.50;;
28625;SDS011;18905;42.668;23.364;2022-11-15T04:22:47;118.85;;;56.72;;
28625;SDS011;18905;42.668;23.364;2022-11-15T04:25:31;113.35;;;54.70;;
28625;SDS011;18905;42.668;23.364;2022-11-15T04:27:56;133.93;;;60.13;;
28625;SDS011;18905;42.668;23.364;2022-11-15T04:30:22;134.32;;;59.85;;
28625;SDS011;18905;42.668;23.364;2022-11-15T04:32:47;126.63;;;59.08;;
28625;SDS011;18905;42.668;23.364;2022-11-15T04:35:12;122.72;;;57.20;;
28625;SDS011;18905;42.668;23.364;2022-11-15T04:37:38;120.85;;;57.72;;
28625;SDS011;18905;42.668;23.364;2022-11-15T04:40:03;116.47;;;54.53;;
28625;SDS011;18905;42.668;23.364;2022-11-15T04:42:29;116.97;;;55.35;;
28625;SDS011;18905;42.668;23.364;2022-11-15T04:44:55;125.93;;;55.83;;
28625;SDS011;18905;42.668;23.364;2022-11-15T04:47:20;110.50;;;54.78;;
28625;SDS011;18905;42.668;23.364;2022-11-15T04:49:46;101.78;;;49.88;;
28625;SDS011;18905;42.668;23.364;2022-11-15T04:52:11;94.60;;;46.13;;
28625;SDS011;18905;42.668;23.364;2022-11-15T04:54:37;74.32;;;40.38;;
28625;SDS011;18905;42.668;23.364;2022-11-15T04:57:02;79.60;;;43.47;;
28625;SDS011;18905;42.668;23.364;2022-11-15T04:59:27;81.55;;;40.35;;
28625;SDS011;18905;42.668;23.364;2022-11-15T05:01:53;80.30;;;40.30;;
28625;SDS011;18905;42.668;23.364;2022-11-15T05:04:18;77.90;;;39.90;;
28625;SDS011;18905;42.668;23.364;2022-11-15T05:06:44;85.13;;;41.17;;
28625;SDS011;18905;42.668;23.364;2022-11-15T05:09:10;81.30;;;40.88;;
28625;SDS011;18905;42.668;23.364;2022-11-15T05:11:35;89.47;;;42.50;;
28625;SDS011;18905;42.668;23.364;2022-11-15T05:14:00;93.50;;;42.17;;
28625;SDS011;18905;42.668;23.364;2022-11-15T05:16:26;99.97;;;39.55;;
28625;SDS011;18905;42.668;23.364;2022-11-15T05:18:52;117.45;;;39.25;;
28625;SDS011;18905;42.668;23.364;2022-11-15T05:21:18;180.73;;;38.08;;
28625;SDS011;18905;42.668;23.364;2022-11-15T05:23:44;126.38;;;38.83;;
28625;SDS011;18905;42.668;23.364;2022-11-15T05:26:09;118.30;;;36.08;;
28625;SDS011;18905;42.668;23.364;2022-11-15T05:28:35;146.45;;;34.78;;
28625;SDS011;18905;42.668;23.364;2022-11-15T05:31:09;124.25;;;33.13;;
28625;SDS011;18905;42.668;23.364;2022-11-15T05:33:39;185.88;;;36.30;;
28625;SDS011;18905;42.668;23.364;2022-11-15T05:36:07;130.73;;;37.78;;
28625;SDS011;18905;42.668;23.364;2022-11-15T05:38:38;143.27;;;39.15;;
28625;SDS011;18905;42.668;23.364;2022-11-15T05:41:04;166.00;;;43.92;;
28625;SDS011;18905;42.668;23.364;2022-11-15T05:43:31;147.65;;;41.90;;
28625;SDS011;18905;42.668;23.364;2022-11-15T05:46:00;123.80;;;38.80;;
28625;SDS011;18905;42.668;23.364;2022-11-15T05:48:27;100.78;;;30.10;;
28625;SDS011;18905;42.668;23.364;2022-11-15T05:50:52;109.18;;;30.52;;
28625;SDS011;18905;42.668;23.364;2022-11-15T05:53:18;107.13;;;38.08;;
28625;SDS011;18905;42.668;23.364;2022-11-15T05:55:46;110.78;;;34.83;;
28625;SDS011;18905;42.668;23.364;2022-11-15T05:58:12;101.65;;;35.75;;
28625;SDS011;18905;42.668;23.364;2022-11-15T06:00:38;104.32;;;31.40;;
28625;SDS011;18905;42.668;23.364;2022-11-15T06:03:04;124.10;;;34.22;;
28625;SDS011;18905;42.668;23.364;2022-11-15T06:05:29;85.20;;;34.50;;
28625;SDS011;18905;42.668;23.364;2022-11-15T06:07:58;81.10;;;33.15;;
28625;SDS011;18905;42.668;23.364;2022-11-15T06:10:24;68.90;;;26.58;;
28625;SDS011;18905;42.668;23.364;2022-11-15T06:13:23;62.08;;;26.90;;
28625;SDS011;18905;42.668;23.364;2022-11-15T06:15:41;58.22;;;25.67;;
28625;SDS011;18905;42.668;23.364;2022-11-15T06:18:06;56.22;;;25.27;;
28625;SDS011;18905;42.668;23.364;2022-11-15T06:20:32;62.72;;;24.92;;
28625;SDS011;18905;42.668;23.364;2022-11-15T06:23:00;60.22;;;25.45;;
28625;SDS011;18905;42.668;23.364;2022-11-15T06:25:27;57.35;;;24.27;;
28625;SDS011;18905;42.668;23.364;2022-11-15T06:27:54;52.03;;;23.38;;
28625;SDS011;18905;42.668;23.364;2022-11-15T06:30:20;61.55;;;26.23;;
28625;SDS011;18905;42.668;23.364;2022-11-15T06:32:46;54.65;;;24.25;;
28625;SDS011;18905;42.668;23.364;2022-11-15T06:35:12;52.10;;;23.73;;
28625;SDS011;18905;42.668;23.364;2022-11-15T06:37:38;50.00;;;23.75;;
28625;SDS011;18905;42.668;23.364;2022-11-15T06:40:03;50.05;;;23.02;;
28625;SDS011;18905;42.668;23.364;2022-11-15T06:42:29;58.13;;;23.95;;
28625;SDS011;18905;42.668;23.364;2022-11-15T06:44:55;47.53;;;22.73;;
28625;SDS011;18905;42.668;23.364;2022-11-15T06:47:20;53.13;;;25.08;;
28625;SDS011;18905;42.668;23.364;2022-11-15T06:49:45;54.72;;;24.67;;
28625;SDS011;18905;42.668;23.364;2022-11-15T06:52:11;56.03;;;24.33;;
28625;SDS011;18905;42.668;23.364;2022-11-15T06:54:36;52.45;;;24.98;;
28625;SDS011;18905;42.668;23.364;2022-11-15T06:57:03;53.70;;;25.10;;
28625;SDS011;18905;42.668;23.364;2022-11-15T06:59:29;57.38;;;27.80;;
28625;SDS011;18905;42.668;23.364;2022-11-15T07:01:54;60.65;;;25.92;;
28625;SDS011;18905;42.668;23.364;2022-11-15T07:04:20;64.55;;;28.10;;
28625;SDS011;18905;42.668;23.364;2022-11-15T07:06:48;60.75;;;27.48;;
28625;SDS011;18905;42.668;23.364;2022-11-15T07:09:14;67.05;;;28.75;;
28625;SDS011;18905;42.668;23.364;2022-11-15T07:11:39;73.75;;;29.80;;
28625;SDS011;18905;42.668;23.364;2022-11-15T07:14:05;76.28;;;29.75;;
28625;SDS011;18905;42.668;23.364;2022-11-15T07:16:30;67.68;;;29.75;;
28625;SDS011;18905;42.668;23.364;2022-11-15T07:18:55;62.15;;;28.17;;
28625;SDS011;18905;42.668;23.364;2022-11-15T07:21:21;63.65;;;30.33;;
28625;SDS011;18905;42.668;23.364;2022-11-15T07:23:46;63.13;;;28.70;;
28625;SDS011;18905;42.668;23.364;2022-11-15T07:26:12;58.35;;;28.73;;
28625;SDS011;18905;42.668;23.364;2022-11-15T07:28:37;62.35;;;29.38;;
28625;SDS011;18905;42.668;23.364;2022-11-15T07:31:03;63.33;;;30.50;;
28625;SDS011;18905;42.668;23.364;2022-11-15T07:33:30;59.92;;;29.00;;
28625;SDS011;18905;42.668;23.364;2022-11-15T07:35:59;67.43;;;28.27;;
28625;SDS011;18905;42.668;23.364;2022-11-15T07:38:26;67.30;;;30.13;;
28625;SDS011;18905;42.668;23.364;2022-11-15T07:40:59;63.38;;;30.17;;
28625;SDS011;18905;42.668;23.364;2022-11-15T07:43:26;63.17;;;29.60;;
28625;SDS011;18905;42.668;23.364;2022-11-15T07:45:57;58.05;;;28.67;;
28625;SDS011;18905;42.668;23.364;2022-11-15T07:48:23;70.10;;;32.33;;
28625;SDS011;18905;42.668;23.364;2022-11-15T07:50:48;66.47;;;30.50;;
28625;SDS011;18905;42.668;23.364;2022-11-15T07:53:14;64.43;;;32.03;;
28625;SDS011;18905;42.668;23.364;2022-11-15T07:55:39;75.15;;;33.35;;
28625;SDS011;18905;42.668;23.364;2022-11-15T07:58:06;65.88;;;32.72;;
28625;SDS011;18905;42.668;23.364;2022-11-15T08:00:34;66.18;;;32.60;;
28625;SDS011;18905;42.668;23.364;2022-11-15T08:03:13;81.82;;;37.10;;
28625;SDS011;18905;42.668;23.364;2022-11-15T08:05:40;80.60;;;34.85;;
28625;SDS011;18905;42.668;23.364;2022-11-15T08:08:08;73.82;;;35.58;;
28625;SDS011;18905;42.668;23.364;2022-11-15T08:10:35;80.32;;;37.22;;
28625;SDS011;18905;42.668;23.364;2022-11-15T08:13:02;76.65;;;36.65;;
28625;SDS011;18905;42.668;23.364;2022-11-15T08:15:29;75.57;;;36.33;;
28625;SDS011;18905;42.668;23.364;2022-11-15T08:18:05;73.47;;;35.25;;
28625;SDS011;18905;42.668;23.364;2022-11-15T08:20:34;89.15;;;36.88;;
28625;SDS011;18905;42.668;23.364;2022-11-15T08:23:01;82.88;;;37.10;;
28625;SDS011;18905;42.668;23.364;2022-11-15T08:25:28;90.65;;;39.65;;
28625;SDS011;18905;42.668;23.364;2022-11-15T08:27:56;80.75;;;39.30;;
28625;SDS011;18905;42.668;23.364;2022-11-15T08:30:23;92.68;;;40.35;;
28625;SDS011;18905;42.668;23.364;2022-11-15T08:32:49;88.93;;;40.53;;
28625;SDS011;18905;42.668;23.364;2022-11-15T08:35:17;104.82;;;44.45;;
28625;SDS011;18905;42.668;23.364;2022-11-15T08:37:43;92.13;;;40.95;;
28625;SDS011;18905;42.668;23.364;2022-11-15T08:40:09;101.18;;;44.63;;
28625;SDS011;18905;42.668;23.364;2022-11-15T08:42:36;97.93;;;43.72;;
28625;SDS011;18905;42.668;23.364;2022-11-15T08:45:02;91.63;;;44.05;;
28625;SDS011;18905;42.668;23.364;2022-11-15T08:47:28;100.95;;;44.08;;
28625;SDS011;18905;42.668;23.364;2022-11-15T08:49:54;96.40;;;43.60;;
28625;SDS011;18905;42.668;23.364;2022-11-15T08:52:20;84.10;;;39.88;;
28625;SDS011;18905;42.668;23.364;2022-11-15T08:54:46;92.70;;;41.17;;
28625;SDS011;18905;42.668;23.364;2022-11-15T08:57:11;94.50;;;41.80;;
28625;SDS011;18905;42.668;23.364;2022-11-15T08:59:37;96.03;;;42.63;;
28625;SDS011;18905;42.668;23.364;2022-11-15T09:02:03;91.00;;;43.22;;
28625;SDS011;18905;42.668;23.364;2022-11-15T09:04:28;101.95;;;43.90;;
28625;SDS011;18905;42.668;23.364;2022-11-15T09:06:54;100.97;;;45.88;;
28625;SDS011;18905;42.668;23.364;2022-11-15T09:09:19;104.13;;;46.25;;
28625;SDS011;18905;42.668;23.364;2022-11-15T09:11:45;100.72;;;45.75;;
28625;SDS011;18905;42.668;23.364;2022-11-15T09:14:11;105.25;;;47.95;;
28625;SDS011;18905;42.668;23.364;2022-11-15T09:16:37;103.72;;;44.40;;
28625;SDS011;18905;42.668;23.364;2022-11-15T09:19:03;102.57;;;46.55;;
28625;SDS011;18905;42.668;23.364;2022-11-15T09:21:28;112.97;;;47.92;;
28625;SDS011;18905;42.668;23.364;2022-11-15T09:23:55;118.75;;;50.15;;
28625;SDS011;18905;42.668;23.364;2022-11-15T09:26:20;100.00;;;46.80;;
28625;SDS011;18905;42.668;23.364;2022-11-15T09:28:46;109.72;;;49.70;;
28625;SDS011;18905;42.668;23.364;2022-11-15T09:31:11;110.80;;;49.35;;
28625;SDS011;18905;42.668;23.364;2022-11-15T09:33:36;108.43;;;48.72;;
28625;SDS011;18905;42.668;23.364;2022-11-15T09:36:03;107.78;;;48.72;;
28625;SDS011;18905;42.668;23.364;2022-11-15T09:38:31;113.43;;;51.88;;
28625;SDS011;18905;42.668;23.364;2022-11-15T09:41:08;112.95;;;52.55;;
28625;SDS011;18905;42.668;23.364;2022-11-15T09:49:00;111.63;;;51.25;;
28625;SDS011;18905;42.668;23.364;2022-11-15T09:57:14;116.95;;;53.30;;
28625;SDS011;18905;42.668;23.364;2022-11-15T09:59:51;111.40;;;51.08;;
28625;SDS011;18905;42.668;23.364;2022-11-15T10:06:03;110.95;;;49.38;;
28625;SDS011;18905;42.668;23.364;2022-11-15T10:08:46;114.45;;;51.38;;
28625;SDS011;18905;42.668;23.364;2022-11-15T10:11:27;111.80;;;51.53;;
28625;SDS011;18905;42.668;23.364;2022-11-15T10:13:57;118.18;;;51.78;;
28625;SDS011;18905;42.668;23.364;2022-11-15T10:16:59;108.03;;;51.33;;
28625;SDS011;18905;42.668;23.364;2022-11-15T10:22:51;105.13;;;49.55;;
28625;SDS011;18905;42.668;23.364;2022-11-15T10:25:20;106.05;;;50.10;;
28625;SDS011;18905;42.668;23.364;2022-11-15T10:27:53;109.18;;;52.22;;
28625;SDS011;18905;42.668;23.364;2022-11-15T10:30:21;108.68;;;50.38;;
28625;SDS011;18905;42.668;23.364;2022-11-15T10:32:47;111.07;;;51.10;;
28625;SDS011;18905;42.668;23.364;2022-11-15T10:35:32;114.35;;;53.30;;
28625;SDS011;18905;42.668;23.364;2022-11-15T10:38:07;115.97;;;51.70;;
28625;SDS011;18905;42.668;23.364;2022-11-15T10:40:34;116.28;;;51.92;;
28625;SDS011;18905;42.668;23.364;2022-11-15T10:45:34;115.53;;;51.40;;
28625;SDS011;18905;42.668;23.364;2022-11-15T10:50:38;123.10;;;52.78;;
28625;SDS011;18905;42.668;23.364;2022-11-15T10:53:11;121.00;;;54.15;;
28625;SDS011;18905;42.668;23.364;2022-11-15T10:55:48;119.97;;;53.17;;
28625;SDS011;18905;42.668;23.364;2022-11-15T11:01:36;120.88;;;53.70;;
28625;SDS011;18905;42.668;23.364;2022-11-15T11:06:24;104.00;;;41.33;;
28625;SDS011;18905;42.668;23.364;2022-11-15T11:11:23;127.07;;;54.08;;
28625;SDS011;18905;42.668;23.364;2022-11-15T11:13:49;121.15;;;52.33;;
28625;SDS011;18905;42.668;23.364;2022-11-15T11:16:25;134.02;;;58.22;;
28625;SDS011;18905;42.668;23.364;2022-11-15T11:46:03;121.80;;;52.88;;
28625;SDS011;18905;42.668;23.364;2022-11-15T11:51:11;115.97;;;50.17;;
28625;SDS011;18905;42.668;23.364;2022-11-15T11:53:52;136.63;;;51.58;;
28625;SDS011;18905;42.668;23.364;2022-11-15T11:56:27;115.63;;;49.25;;
28625;SDS011;18905;42.668;23.364;2022-11-15T11:58:55;107.45;;;47.53;;
28625;SDS011;18905;42.668;23.364;2022-11-15T12:01:32;107.93;;;48.92;;
28625;SDS011;18905;42.668;23.364;2022-11-15T12:06:53;103.70;;;48.03;;
28625;SDS011;18905;42.668;23.364;2022-11-15T12:09:27;105.30;;;48.25;;
28625;SDS011;18905;42.668;23.364;2022-11-15T12:17:21;98.50;;;47.08;;
28625;SDS011;18905;42.668;23.364;2022-11-15T12:19:49;102.25;;;47.67;;
28625;SDS011;18905;42.668;23.364;2022-11-15T12:22:22;96.00;;;48.00;;
28625;SDS011;18905;42.668;23.364;2022-11-15T12:24:54;101.68;;;47.22;;
28625;SDS011;18905;42.668;23.364;2022-11-15T12:27:39;97.05;;;45.33;;
28625;SDS011;18905;42.668;23.364;2022-11-15T12:30:11;94.45;;;45.80;;
28625;SDS011;18905;42.668;23.364;2022-11-15T12:32:55;100.10;;;46.67;;
28625;SDS011;18905;42.668;23.364;2022-11-15T12:35:34;99.47;;;44.88;;
28625;SDS011;18905;42.668;23.364;2022-11-15T12:38:04;101.90;;;47.40;;
28625;SDS011;18905;42.668;23.364;2022-11-15T12:40:34;94.68;;;45.10;;
28625;SDS011;18905;42.668;23.364;2022-11-15T12:43:10;93.43;;;44.45;;
28625;SDS011;18905;42.668;23.364;2022-11-15T12:46:10;102.45;;;46.35;;
28625;SDS011;18905;42.668;23.364;2022-11-15T12:51:03;91.45;;;44.53;;
28625;SDS011;18905;42.668;23.364;2022-11-15T12:53:30;97.03;;;46.17;;
28625;SDS011;18905;42.668;23.364;2022-11-15T12:58:58;93.45;;;42.45;;
28625;SDS011;18905;42.668;23.364;2022-11-15T13:06:50;90.03;;;43.95;;
28625;SDS011;18905;42.668;23.364;2022-11-15T13:11:57;95.38;;;46.28;;
28625;SDS011;18905;42.668;23.364;2022-11-15T13:19:45;97.15;;;46.33;;
28625;SDS011;18905;42.668;23.364;2022-11-15T13:22:12;93.65;;;47.53;;
28625;SDS011;18905;42.668;23.364;2022-11-15T13:24:57;100.57;;;48.95;;
28625;SDS011;18905;42.668;23.364;2022-11-15T13:27:23;94.57;;;46.75;;
28625;SDS011;18905;42.668;23.364;2022-11-15T13:29:49;92.72;;;45.47;;
28625;SDS011;18905;42.668;23.364;2022-11-15T13:32:15;100.78;;;47.72;;
28625;SDS011;18905;42.668;23.364;2022-11-15T13:34:45;98.07;;;47.20;;
28625;SDS011;18905;42.668;23.364;2022-11-15T13:39:44;95.90;;;46.42;;
28625;SDS011;18905;42.668;23.364;2022-11-15T13:42:14;118.65;;;50.30;;
28625;SDS011;18905;42.668;23.364;2022-11-15T13:44:41;98.65;;;47.88;;
28625;SDS011;18905;42.668;23.364;2022-11-15T13:47:20;108.75;;;49.13;;
28625;SDS011;18905;42.668;23.364;2022-11-15T13:49:46;99.75;;;47.90;;
28625;SDS011;18905;42.668;23.364;2022-11-15T13:52:13;113.13;;;50.63;;
28625;SDS011;18905;42.668;23.364;2022-11-15T13:54:45;107.18;;;51.63;;
28625;SDS011;18905;42.668;23.364;2022-11-15T13:57:43;101.63;;;50.22;;
28625;SDS011;18905;42.668;23.364;2022-11-15T14:02:57;108.88;;;52.83;;
28625;SDS011;18905;42.668;23.364;2022-11-15T14:05:39;114.35;;;53.85;;
28625;SDS011;18905;42.668;23.364;2022-11-15T14:10:45;117.10;;;56.60;;
28625;SDS011;18905;42.668;23.364;2022-11-15T14:13:26;131.48;;;58.92;;
28625;SDS011;18905;42.668;23.364;2022-11-15T14:15:53;121.90;;;57.58;;
28625;SDS011;18905;42.668;23.364;2022-11-15T14:21:11;137.70;;;65.95;;
28625;SDS011;18905;42.668;23.364;2022-11-15T14:23:36;151.45;;;69.40;;
28625;SDS011;18905;42.668;23.364;2022-11-15T14:26:02;152.50;;;69.25;;
28625;SDS011;18905;42.668;23.364;2022-11-15T14:28:31;164.27;;;71.38;;
28625;SDS011;18905;42.668;23.364;2022-11-15T14:30:59;147.50;;;69.78;;
28625;SDS011;18905;42.668;23.364;2022-11-15T14:33:33;159.85;;;70.50;;
28625;SDS011;18905;42.668;23.364;2022-11-15T14:36:20;147.20;;;68.45;;
28625;SDS011;18905;42.668;23.364;2022-11-15T14:38:46;139.25;;;62.33;;
28625;SDS011;18905;42.668;23.364;2022-11-15T14:41:19;148.05;;;66.63;;
28625;SDS011;18905;42.668;23.364;2022-11-15T14:43:47;128.45;;;60.45;;
28625;SDS011;18905;42.668;23.364;2022-11-15T14:46:12;134.85;;;59.35;;
28625;SDS011;18905;42.668;23.364;2022-11-15T14:48:38;133.20;;;61.72;;
28625;SDS011;18905;42.668;23.364;2022-11-15T14:51:03;138.90;;;63.78;;
28625;SDS011;18905;42.668;23.364;2022-11-15T14:53:38;136.30;;;61.53;;
28625;SDS011;18905;42.668;23.364;2022-11-15T14:56:03;121.38;;;59.75;;
28625;SDS011;18905;42.668;23.364;2022-11-15T14:58:29;129.27;;;57.22;;
28625;SDS011;18905;42.668;23.364;2022-11-15T15:00:54;126.57;;;58.67;;
28625;SDS011;18905;42.668;23.364;2022-11-15T15:03:20;135.38;;;61.72;;
28625;SDS011;18905;42.668;23.364;2022-11-15T15:05:45;138.98;;;64.60;;
28625;SDS011;18905;42.668;23.364;2022-11-15T15:08:11;127.15;;;61.50;;
28625;SDS011;18905;42.668;23.364;2022-11-15T15:10:38;133.82;;;60.42;;
28625;SDS011;18905;42.668;23.364;2022-11-15T15:13:18;134.02;;;61.35;;
28625;SDS011;18905;42.668;23.364;2022-11-15T15:15:45;130.18;;;62.78;;
28625;SDS011;18905;42.668;23.364;2022-11-15T15:18:12;130.95;;;61.67;;
28625;SDS011;18905;42.668;23.364;2022-11-15T15:20:38;125.60;;;58.88;;
28625;SDS011;18905;42.668;23.364;2022-11-15T15:23:10;123.95;;;60.28;;
28625;SDS011;18905;42.668;23.364;2022-11-15T15:25:40;121.57;;;59.30;;
28625;SDS011;18905;42.668;23.364;2022-11-15T15:28:07;128.18;;;60.10;;
28625;SDS011;18905;42.668;23.364;2022-11-15T15:30:32;134.38;;;59.97;;
28625;SDS011;18905;42.668;23.364;2022-11-15T15:32:57;129.10;;;61.03;;
28625;SDS011;18905;42.668;23.364;2022-11-15T15:35:23;122.95;;;59.40;;
28625;SDS011;18905;42.668;23.364;2022-11-15T15:37:54;121.28;;;59.63;;
28625;SDS011;18905;42.668;23.364;2022-11-15T15:40:20;138.02;;;61.42;;
28625;SDS011;18905;42.668;23.364;2022-11-15T15:42:48;134.68;;;60.60;;
28625;SDS011;18905;42.668;23.364;2022-11-15T15:45:14;153.65;;;63.60;;
28625;SDS011;18905;42.668;23.364;2022-11-15T15:47:41;139.68;;;64.38;;
28625;SDS011;18905;42.668;23.364;2022-11-15T15:52:50;126.07;;;59.78;;
28625;SDS011;18905;42.668;23.364;2022-11-15T15:55:16;134.45;;;63.17;;
28625;SDS011;18905;42.668;23.364;2022-11-15T15:57:42;143.52;;;65.22;;
28625;SDS011;18905;42.668;23.364;2022-11-15T16:00:08;150.23;;;65.40;;
28625;SDS011;18905;42.668;23.364;2022-11-15T16:02:34;153.55;;;72.70;;
28625;SDS011;18905;42.668;23.364;2022-11-15T16:04:59;166.02;;;76.65;;
28625;SDS011;18905;42.668;23.364;2022-11-15T16:07:25;182.15;;;87.53;;
28625;SDS011;18905;42.668;23.364;2022-11-15T16:09:50;225.82;;;107.10;;
28625;SDS011;18905;42.668;23.364;2022-11-15T16:12:25;203.40;;;101.60;;
28625;SDS011;18905;42.668;23.364;2022-11-15T16:14:51;184.98;;;86.93;;